createdAt,value
2023-04-15T00:01:07.091Z,20.58
2023-04-15T00:03:34.991Z,26.75
2023-04-15T00:06:02.565Z,26.57
2023-04-15T00:08:30.226Z,28.85
2023-04-15T00:10:59.512Z,22.77
2023-04-15T00:13:26.389Z,19.10
2023-04-15T00:15:53.527Z,17.45
2023-04-15T00:18:20.455Z,20.23
2023-04-15T00:20:47.934Z,20.58
2023-04-15T00:23:14.806Z,22.08
2023-04-15T00:25:41.965Z,15.93
2023-04-15T00:28:09.486Z,15.32
2023-04-15T00:30:36.644Z,16.50
2023-04-15T00:35:33.782Z,20.92
2023-04-15T00:38:00.722Z,20.83
2023-04-15T00:40:27.991Z,19.58
2023-04-15T00:42:55.204Z,21.42
2023-04-15T00:45:22.688Z,14.45
2023-04-15T00:47:51.315Z,16.33
2023-04-15T00:50:18.576Z,19.15
2023-04-15T00:52:45.658Z,12.23
2023-04-15T00:55:13.271Z,17.42
2023-04-15T00:57:40.752Z,14.35
2023-04-15T01:00:09.319Z,15.25
2023-04-15T01:02:36.979Z,15.10
2023-04-15T01:05:05.173Z,13.20
2023-04-15T01:07:32.251Z,12.52
2023-04-15T01:09:59.825Z,15.73
2023-04-15T01:12:28.021Z,15.30
2023-04-15T01:14:56.787Z,14.25
2023-04-15T01:17:25.545Z,14.25
2023-04-15T01:19:53.203Z,15.25
2023-04-15T01:22:21.160Z,15.70
2023-04-15T01:24:57.176Z,13.65
2023-04-15T01:27:24.954Z,15.48
2023-04-15T01:29:52.924Z,16.08
2023-04-15T01:32:20.034Z,22.05
2023-04-15T01:34:47.127Z,20.52
2023-04-15T01:37:14.140Z,17.35
2023-04-15T01:39:41.251Z,17.38
2023-04-15T01:42:08.486Z,18.48
2023-04-15T01:44:35.730Z,19.02
2023-04-15T01:47:02.652Z,40.72
2023-04-15T01:49:29.770Z,32.55
2023-04-15T01:51:56.632Z,19.30
2023-04-15T01:54:23.814Z,18.90
2023-04-15T01:56:50.661Z,16.08
2023-04-15T01:59:18.025Z,16.80
2023-04-15T02:01:48.199Z,31.15
2023-04-15T02:04:17.401Z,30.13
2023-04-15T02:06:44.545Z,23.45
2023-04-15T02:09:11.858Z,21.02
2023-04-15T02:11:39.322Z,20.33
2023-04-15T02:14:06.517Z,21.90
2023-04-15T02:16:33.971Z,22.17
2023-04-15T02:19:01.456Z,22.90
2023-04-15T02:21:28.586Z,23.77
2023-04-15T02:23:56.075Z,25.45
2023-04-15T02:26:23.393Z,22.85
2023-04-15T02:28:51.454Z,21.52
2023-04-15T02:31:18.437Z,19.88
2023-04-15T02:33:45.832Z,21.70
2023-04-15T02:36:12.872Z,19.88
2023-04-15T02:38:43.172Z,19.95
2023-04-15T02:41:10.641Z,20.40
2023-04-15T02:43:39.949Z,29.77
2023-04-15T02:46:07.328Z,101.88
2023-04-15T02:48:34.372Z,24.95
2023-04-15T02:51:31.348Z,21.02
2023-04-15T02:53:58.419Z,20.50
2023-04-15T02:56:25.836Z,20.15
2023-04-15T02:58:56.157Z,20.25
2023-04-15T03:01:23.380Z,15.30
2023-04-15T03:03:50.265Z,19.10
2023-04-15T03:06:17.542Z,18.83
2023-04-15T03:08:44.575Z,20.83
2023-04-15T03:11:12.472Z,21.52
2023-04-15T03:16:27.566Z,23.55
2023-04-15T03:18:54.732Z,22.42
2023-04-15T03:21:21.596Z,20.25
2023-04-15T03:23:48.931Z,23.20
2023-04-15T03:26:31.958Z,21.67
2023-04-15T03:28:59.556Z,17.75
2023-04-15T03:31:26.746Z,13.43
2023-04-15T03:33:53.933Z,15.43
2023-04-15T03:36:20.797Z,15.18
2023-04-15T03:38:49.402Z,14.68
2023-04-15T03:41:16.259Z,14.53
2023-04-15T03:43:43.445Z,14.65
2023-04-15T03:46:10.441Z,12.23
2023-04-15T03:48:37.655Z,10.05
2023-04-15T03:51:04.505Z,7.65
2023-04-15T03:53:31.723Z,10.43
2023-04-15T03:55:58.601Z,8.55
2023-04-15T03:58:25.939Z,10.70
2023-04-15T04:00:52.895Z,10.98
2023-04-15T04:03:20.201Z,11.05
2023-04-15T04:05:47.382Z,9.63
2023-04-15T04:08:16.296Z,9.75
2023-04-15T04:10:43.149Z,10.65
2023-04-15T04:13:10.292Z,12.93
2023-04-15T04:15:37.247Z,17.33
2023-04-15T04:18:04.508Z,20.25
2023-04-15T04:20:34.093Z,18.88
2023-04-15T04:23:01.401Z,16.55
2023-04-15T04:25:28.229Z,18.25
2023-04-15T04:27:55.340Z,12.85
2023-04-15T04:30:22.323Z,12.73
2023-04-15T04:32:50.879Z,17.00
2023-04-15T04:35:17.843Z,13.23
2023-04-15T04:37:44.958Z,10.32
2023-04-15T04:40:12.414Z,11.85
2023-04-15T04:42:40.234Z,14.25
2023-04-15T04:45:07.684Z,13.68
2023-04-15T04:47:34.918Z,11.35
2023-04-15T04:50:01.877Z,9.90
2023-04-15T04:52:29.128Z,9.40
2023-04-15T04:54:56.328Z,9.57
2023-04-15T04:57:23.528Z,10.65
2023-04-15T04:59:50.368Z,9.27
2023-04-15T05:02:17.751Z,8.73
2023-04-15T05:04:44.765Z,10.05
2023-04-15T05:07:12.278Z,8.38
2023-04-15T05:09:39.196Z,8.18
2023-04-15T05:12:06.677Z,7.95
2023-04-15T05:14:33.892Z,11.90
2023-04-15T05:17:01.123Z,9.90
2023-04-15T05:19:28.006Z,13.65
2023-04-15T05:21:55.350Z,12.60
2023-04-15T05:24:22.515Z,13.90
2023-04-15T05:26:49.639Z,8.32
2023-04-15T05:29:16.874Z,11.68
2023-04-15T05:31:44.401Z,9.77
2023-04-15T05:34:12.351Z,7.32
2023-04-15T05:36:39.648Z,6.83
2023-04-15T05:39:07.200Z,7.60
2023-04-15T05:41:34.694Z,6.25
2023-04-15T05:44:02.096Z,7.40
2023-04-15T05:46:29.265Z,6.45
2023-04-15T05:48:56.798Z,11.02
2023-04-15T05:51:24.065Z,7.07
2023-04-15T05:53:51.053Z,5.60
2023-04-15T05:56:18.255Z,9.00
2023-04-15T05:58:45.144Z,5.35
2023-04-15T06:01:12.498Z,5.32
2023-04-15T06:03:39.850Z,10.57
2023-04-15T06:06:07.772Z,7.85
2023-04-15T06:08:34.679Z,5.75
2023-04-15T06:11:01.933Z,7.28
2023-04-15T06:13:29.488Z,6.30
2023-04-15T06:15:56.729Z,8.38
2023-04-15T06:18:23.653Z,7.38
2023-04-15T06:20:51.749Z,6.18
2023-04-15T06:23:18.639Z,8.05
2023-04-15T06:25:45.942Z,12.60
2023-04-15T06:28:13.055Z,10.05
2023-04-15T06:30:40.593Z,9.52
2023-04-15T06:33:07.558Z,7.65
2023-04-15T06:35:34.905Z,7.90
2023-04-15T06:38:01.802Z,7.40
2023-04-15T06:40:28.963Z,8.65
2023-04-15T06:42:56.093Z,8.82
2023-04-15T06:45:23.301Z,10.02
2023-04-15T06:47:50.203Z,10.52
2023-04-15T06:50:17.573Z,11.65
2023-04-15T06:52:44.451Z,6.20
2023-04-15T06:55:11.664Z,10.25
2023-04-15T06:57:38.534Z,10.50
2023-04-15T07:00:06.417Z,8.80
2023-04-15T07:02:33.642Z,13.68
2023-04-15T07:05:00.873Z,5.88
2023-04-15T07:07:27.842Z,7.25
2023-04-15T07:09:54.997Z,3.33
2023-04-15T07:12:22.021Z,4.22
2023-04-15T07:14:49.641Z,6.32
2023-04-15T07:17:16.762Z,3.97
2023-04-15T07:19:43.898Z,2.65
2023-04-15T07:22:10.736Z,3.30
2023-04-15T07:24:37.902Z,4.45
2023-04-15T07:27:04.795Z,3.17
2023-04-15T07:29:32.203Z,2.90
2023-04-15T07:31:59.123Z,3.17
2023-04-15T07:34:26.410Z,5.90
2023-04-15T07:36:53.279Z,5.05
2023-04-15T07:39:20.453Z,4.20
2023-04-15T07:41:47.468Z,4.35
2023-04-15T07:44:14.763Z,3.80
2023-04-15T07:46:42.010Z,3.35
2023-04-15T07:49:09.343Z,5.65
2023-04-15T07:51:36.415Z,4.65
2023-04-15T07:54:04.357Z,3.97
2023-04-15T07:56:31.322Z,4.00
2023-04-15T07:58:58.439Z,3.17
2023-04-15T08:01:25.312Z,2.22
2023-04-15T08:03:52.923Z,3.50
2023-04-15T08:06:19.932Z,3.65
2023-04-15T08:08:47.206Z,3.25
2023-04-15T08:11:14.611Z,2.28
2023-04-15T08:13:41.840Z,2.10
2023-04-15T08:16:19.024Z,2.85
2023-04-15T08:18:48.055Z,2.28
2023-04-15T08:21:16.502Z,3.22
2023-04-15T08:23:44.530Z,2.80
2023-04-15T08:26:11.841Z,3.85
2023-04-15T08:28:40.761Z,2.33
2023-04-15T08:31:08.171Z,3.28
2023-04-15T08:33:35.467Z,1.73
2023-04-15T08:36:02.373Z,2.80
2023-04-15T08:38:29.528Z,2.35
2023-04-15T08:40:58.812Z,2.42
2023-04-15T08:43:33.725Z,3.05
2023-04-15T08:46:02.020Z,4.32
2023-04-15T08:48:29.991Z,2.13
2023-04-15T08:50:57.356Z,5.20
2023-04-15T08:53:25.484Z,2.55
2023-04-15T08:55:53.085Z,1.42
2023-04-15T08:58:20.541Z,2.17
2023-04-15T09:00:48.809Z,1.63
2023-04-15T09:03:17.680Z,2.45
2023-04-15T09:05:45.584Z,3.08
2023-04-15T09:08:12.918Z,3.33
2023-04-15T09:10:39.768Z,4.88
2023-04-15T09:13:07.220Z,5.35
2023-04-15T09:15:38.529Z,3.90
2023-04-15T09:18:06.920Z,3.38
2023-04-15T09:20:40.990Z,5.88
2023-04-15T09:23:15.237Z,4.97
2023-04-15T09:25:42.720Z,5.95
2023-04-15T09:28:10.848Z,6.32
2023-04-15T09:30:37.892Z,4.97
2023-04-15T09:33:08.372Z,4.55
2023-04-15T09:35:38.562Z,3.33
2023-04-15T09:38:10.454Z,4.95
2023-04-15T09:40:39.264Z,2.63
2023-04-15T09:43:07.731Z,3.72
2023-04-15T09:45:37.490Z,4.50
2023-04-15T09:48:31.276Z,3.47
2023-04-15T09:50:59.152Z,2.58
2023-04-15T09:53:26.599Z,2.83
2023-04-15T09:55:56.353Z,3.55
2023-04-15T09:58:25.308Z,3.00
2023-04-15T10:00:53.908Z,3.38
2023-04-15T10:03:23.961Z,2.97
2023-04-15T10:05:53.108Z,2.97
2023-04-15T10:08:22.529Z,5.03
2023-04-15T10:10:49.657Z,3.47
2023-04-15T10:13:22.589Z,4.65
2023-04-15T10:16:05.371Z,2.60
2023-04-15T10:18:35.798Z,3.55
2023-04-15T10:21:02.737Z,5.68
2023-04-15T10:23:30.509Z,3.47
2023-04-15T10:25:59.004Z,5.75
2023-04-15T10:28:26.736Z,2.28
2023-04-15T10:30:53.829Z,5.95
2023-04-15T10:33:23.294Z,2.63
2023-04-15T10:38:43.370Z,2.08
2023-04-15T10:41:26.939Z,3.17
2023-04-15T10:43:56.200Z,1.90
2023-04-15T10:46:36.820Z,4.15
2023-04-15T10:49:13.672Z,2.22
2023-04-15T10:51:46.874Z,3.90
2023-04-15T10:54:31.176Z,6.47
2023-04-15T10:57:03.582Z,1.75
2023-04-15T10:59:31.585Z,2.00
2023-04-15T11:02:02.906Z,2.88
2023-04-15T11:04:55.108Z,2.75
2023-04-15T11:07:47.162Z,2.10
2023-04-15T11:10:14.327Z,2.88
2023-04-15T11:12:42.119Z,4.60
2023-04-15T11:15:30.655Z,4.07
2023-04-15T11:17:59.137Z,3.17
2023-04-15T11:20:27.183Z,8.35
2023-04-15T11:23:14.655Z,2.13
2023-04-15T11:25:43.287Z,3.50
2023-04-15T11:28:12.050Z,3.13
2023-04-15T11:30:40.562Z,4.32
2023-04-15T11:33:10.117Z,4.38
2023-04-15T11:35:37.752Z,6.05
2023-04-15T11:38:06.302Z,7.00
2023-04-15T11:40:33.600Z,2.85
2023-04-15T11:43:10.797Z,5.22
2023-04-15T11:45:47.900Z,6.38
2023-04-15T11:48:14.800Z,7.45
2023-04-15T11:50:41.997Z,14.13
2023-04-15T11:53:12.869Z,6.30
2023-04-15T11:55:52.753Z,5.50
2023-04-15T11:58:24.825Z,9.85
2023-04-15T12:01:00.193Z,9.07
2023-04-15T12:03:28.705Z,9.50
2023-04-15T12:06:21.422Z,5.13
2023-04-15T12:09:06.550Z,10.30
2023-04-15T12:11:50.207Z,13.50
2023-04-15T12:14:33.602Z,4.72
2023-04-15T12:17:05.424Z,6.40
2023-04-15T12:19:35.714Z,6.43
2023-04-15T12:22:09.051Z,7.40
2023-04-15T12:24:37.119Z,5.03
2023-04-15T12:27:06.192Z,4.40
2023-04-15T12:29:34.501Z,5.07
2023-04-15T12:32:12.977Z,6.45
2023-04-15T12:34:44.951Z,8.23
2023-04-15T12:37:14.356Z,6.95
2023-04-15T12:39:43.781Z,7.55
2023-04-15T12:42:11.699Z,7.32
2023-04-15T12:44:39.634Z,8.00
2023-04-15T12:47:07.805Z,7.10
2023-04-15T12:49:35.127Z,4.15
2023-04-15T12:52:03.509Z,6.35
2023-04-15T12:54:31.553Z,6.07
2023-04-15T12:56:59.540Z,2.20
2023-04-15T12:59:26.751Z,1.70
2023-04-15T13:01:54.413Z,0.95
2023-04-15T13:04:22.408Z,2.03
2023-04-15T13:06:50.487Z,5.93
2023-04-15T13:09:17.373Z,2.08
2023-04-15T13:11:45.873Z,2.20
2023-04-15T13:14:13.097Z,2.55
2023-04-15T13:16:41.526Z,3.25
2023-04-15T13:19:08.693Z,9.10
2023-04-15T13:21:36.364Z,6.93
2023-04-15T13:24:04.929Z,25.92
2023-04-15T13:26:32.857Z,18.20
2023-04-15T13:28:59.941Z,31.33
2023-04-15T13:31:27.344Z,18.05
2023-04-15T13:33:54.452Z,6.70
2023-04-15T13:36:21.657Z,3.65
2023-04-15T13:38:50.938Z,2.53
2023-04-15T13:41:18.841Z,11.38
2023-04-15T13:43:45.716Z,6.20
2023-04-15T13:46:13.081Z,6.03
2023-04-15T13:48:40.180Z,2.78
2023-04-15T13:51:07.297Z,6.10
2023-04-15T13:53:38.942Z,5.70
2023-04-15T13:56:10.101Z,12.35
2023-04-15T13:58:37.886Z,15.50
2023-04-15T14:01:06.986Z,8.30
2023-04-15T14:06:06.233Z,8.65
2023-04-15T14:08:33.382Z,13.43
2023-04-15T14:11:00.835Z,15.73
2023-04-15T14:13:27.924Z,18.70
2023-04-15T14:15:55.151Z,15.85
2023-04-15T14:18:22.090Z,14.23
2023-04-15T14:20:49.269Z,8.55
2023-04-15T14:23:16.302Z,10.90
2023-04-15T14:25:44.171Z,13.60
2023-04-15T14:28:12.423Z,14.82
2023-04-15T14:30:39.671Z,15.65
2023-04-15T14:33:06.489Z,12.52
2023-04-15T14:35:33.728Z,12.37
2023-04-15T14:38:00.700Z,17.17
2023-04-15T14:40:27.892Z,18.23
2023-04-15T14:42:54.714Z,192.30
2023-04-15T14:45:21.814Z,33.08
2023-04-15T14:47:48.923Z,31.98
2023-04-15T14:50:17.812Z,43.97
2023-04-15T14:52:44.688Z,40.70
2023-04-15T14:55:13.009Z,74.00
2023-04-15T14:57:41.502Z,31.02
2023-04-15T15:00:10.771Z,24.60
2023-04-15T15:02:40.518Z,26.58
2023-04-15T15:05:09.980Z,24.38
2023-04-15T15:07:38.457Z,29.20
2023-04-15T15:10:06.250Z,21.02
2023-04-15T15:12:34.005Z,22.88
2023-04-15T15:15:03.084Z,23.50
2023-04-15T15:17:32.345Z,15.85
2023-04-15T15:19:59.843Z,20.90
2023-04-15T15:22:26.820Z,20.95
2023-04-15T15:24:54.016Z,15.23
2023-04-15T15:27:21.236Z,18.38
2023-04-15T15:29:49.085Z,20.50
2023-04-15T15:32:16.155Z,15.52
2023-04-15T15:34:43.333Z,110.30
2023-04-15T15:37:10.340Z,46.58
2023-04-15T15:39:37.545Z,21.77
2023-04-15T15:42:04.472Z,13.65
2023-04-15T15:44:33.021Z,31.30
2023-04-15T15:47:01.518Z,6.70
2023-04-15T15:49:29.054Z,12.85
2023-04-15T15:51:56.339Z,17.48
2023-04-15T15:54:24.535Z,18.08
2023-04-15T15:56:51.383Z,10.93
2023-04-15T15:59:18.611Z,7.53
2023-04-15T16:01:45.588Z,8.02
2023-04-15T16:04:12.971Z,6.63
2023-04-15T16:06:40.851Z,6.53
2023-04-15T16:09:08.011Z,10.95
2023-04-15T16:11:34.964Z,7.25
2023-04-15T16:14:02.237Z,10.70
2023-04-15T16:16:30.120Z,10.88
2023-04-15T16:18:58.193Z,9.02
2023-04-15T16:21:26.120Z,8.88
2023-04-15T16:23:53.949Z,5.60
2023-04-15T16:26:20.847Z,9.70
2023-04-15T16:28:47.997Z,11.98
2023-04-15T16:31:14.881Z,12.95
2023-04-15T16:33:42.035Z,12.27
2023-04-15T16:36:08.845Z,6.43
2023-04-15T16:38:35.994Z,18.27
2023-04-15T16:41:02.964Z,8.02
2023-04-15T16:43:30.212Z,8.32
2023-04-15T16:45:57.147Z,7.97
2023-04-15T16:48:24.341Z,7.53
2023-04-15T16:50:51.218Z,9.73
2023-04-15T16:53:18.418Z,8.23
2023-04-15T16:55:45.302Z,10.43
2023-04-15T16:58:12.429Z,14.38
2023-04-15T17:00:39.604Z,9.13
2023-04-15T17:03:06.964Z,53.40
2023-04-15T17:05:34.052Z,35.30
2023-04-15T17:08:01.433Z,25.45
2023-04-15T17:10:28.425Z,27.40
2023-04-15T17:12:56.990Z,31.70
2023-04-15T17:15:24.064Z,31.17
2023-04-15T17:17:51.299Z,37.13
2023-04-15T17:20:18.249Z,27.60
2023-04-15T17:22:46.089Z,39.05
2023-04-15T17:25:14.058Z,42.65
2023-04-15T17:27:41.866Z,45.58
2023-04-15T17:30:09.566Z,80.57
2023-04-15T17:32:37.344Z,51.88
2023-04-15T17:35:06.548Z,75.57
2023-04-15T17:37:34.491Z,64.57
2023-04-15T17:40:01.981Z,43.05
2023-04-15T17:42:29.166Z,47.47
2023-04-15T17:44:56.066Z,52.92
2023-04-15T17:47:23.304Z,66.57
2023-04-15T17:49:50.173Z,50.55
2023-04-15T17:52:17.686Z,52.50
2023-04-15T17:54:46.079Z,46.88
2023-04-15T17:57:13.275Z,59.70
2023-04-15T17:59:44.062Z,62.33
2023-04-15T18:02:11.835Z,93.60
2023-04-15T18:04:39.703Z,95.85
2023-04-15T18:07:07.103Z,108.18
2023-04-15T18:09:34.094Z,100.88
2023-04-15T18:12:02.153Z,96.70
2023-04-15T18:14:34.789Z,114.47
2023-04-15T18:17:03.207Z,127.87
2023-04-15T18:19:31.028Z,128.33
2023-04-15T18:22:00.279Z,115.93
2023-04-15T18:24:28.088Z,143.23
2023-04-15T18:26:56.619Z,123.70
2023-04-15T18:29:23.625Z,123.00
2023-04-15T18:31:51.631Z,95.03
2023-04-15T18:34:18.657Z,104.63
2023-04-15T18:36:46.298Z,99.10
2023-04-15T18:39:13.229Z,86.80
2023-04-15T18:41:40.472Z,110.83
2023-04-15T18:44:07.572Z,96.10
2023-04-15T18:46:34.845Z,97.97
2023-04-15T18:49:01.750Z,118.00
2023-04-15T18:51:28.939Z,94.93
2023-04-15T18:53:56.090Z,72.17
2023-04-15T18:56:23.277Z,69.00
2023-04-15T18:59:10.248Z,74.50
2023-04-15T19:01:37.318Z,84.63
2023-04-15T19:04:04.281Z,72.17
2023-04-15T19:06:32.098Z,72.77
2023-04-15T19:08:59.095Z,54.17
2023-04-15T19:11:26.414Z,54.83
2023-04-15T19:13:53.392Z,56.37
2023-04-15T19:16:21.143Z,96.50
2023-04-15T19:18:48.133Z,84.77
2023-04-15T19:21:15.658Z,91.73
2023-04-15T19:23:45.332Z,88.60
2023-04-15T19:26:12.533Z,91.53
2023-04-15T19:28:39.735Z,88.77
2023-04-15T19:31:07.502Z,80.70
2023-04-15T19:33:34.505Z,68.00
2023-04-15T19:36:04.370Z,68.53
2023-04-15T19:38:32.085Z,52.67
2023-04-15T19:40:59.374Z,33.73
2023-04-15T19:43:26.314Z,26.27
2023-04-15T19:45:54.895Z,59.13
2023-04-15T19:48:23.009Z,17.05
2023-04-15T19:50:50.619Z,7.30
2023-04-15T19:53:17.765Z,6.32
2023-04-15T19:55:45.069Z,5.63
2023-04-15T19:58:11.962Z,7.45
2023-04-15T20:00:39.194Z,4.82
2023-04-15T20:03:06.456Z,6.03
2023-04-15T20:05:33.831Z,4.45
2023-04-15T20:08:01.633Z,10.82
2023-04-15T20:10:29.806Z,5.50
2023-04-15T20:12:56.628Z,16.48
2023-04-15T20:15:24.303Z,24.67
2023-04-15T20:17:51.393Z,28.10
2023-04-15T20:20:18.813Z,36.30
2023-04-15T20:22:45.900Z,23.17
2023-04-15T20:25:13.339Z,18.02
2023-04-15T20:27:40.515Z,21.88
2023-04-15T20:30:08.249Z,25.17
2023-04-15T20:32:36.007Z,19.63
2023-04-15T20:35:05.220Z,23.30
2023-04-15T20:37:33.544Z,25.17
2023-04-15T20:40:01.453Z,30.05
2023-04-15T20:42:32.770Z,34.47
2023-04-15T20:45:00.537Z,120.87
2023-04-15T20:47:27.473Z,41.93
2023-04-15T20:49:54.700Z,40.17
2023-04-15T20:52:21.953Z,36.30
2023-04-15T20:54:49.099Z,38.13
2023-04-15T20:57:16.899Z,46.50
2023-04-15T20:59:44.049Z,40.33
2023-04-15T21:02:10.986Z,64.83
2023-04-15T21:04:38.935Z,65.17
2023-04-15T21:07:06.028Z,42.17
2023-04-15T21:09:33.329Z,49.73
2023-04-15T21:12:01.904Z,45.43
2023-04-15T21:14:29.526Z,40.75
2023-04-15T21:16:59.554Z,53.90
2023-04-15T21:19:26.942Z,52.77
2023-04-15T21:21:53.832Z,54.23
2023-04-15T21:24:21.361Z,57.57
2023-04-15T21:26:48.307Z,66.27
2023-04-15T21:29:15.488Z,53.23
2023-04-15T21:31:42.654Z,31.73
2023-04-15T21:34:10.412Z,39.67
2023-04-15T21:36:38.453Z,45.23
2023-04-15T21:39:06.148Z,38.97
2023-04-15T21:41:33.222Z,40.10
2023-04-15T21:44:00.410Z,38.77
2023-04-15T21:46:32.828Z,45.97
2023-04-15T21:49:02.299Z,52.23
2023-04-15T21:51:29.151Z,46.77
2023-04-15T21:53:56.251Z,48.37
2023-04-15T21:56:24.473Z,77.83
2023-04-15T21:58:56.911Z,63.97
2023-04-15T22:01:24.589Z,64.90
2023-04-15T22:03:52.327Z,54.73
2023-04-15T22:06:19.393Z,41.77
2023-04-15T22:08:56.085Z,40.03
2023-04-15T22:11:27.657Z,36.17
2023-04-15T22:13:56.652Z,37.73
2023-04-15T22:16:25.591Z,39.20
2023-04-15T22:18:52.814Z,33.87
2023-04-15T22:21:19.888Z,36.13
2023-04-15T22:23:48.152Z,38.10
2023-04-15T22:26:15.437Z,31.20
2023-04-15T22:28:43.676Z,28.80
2023-04-15T22:31:10.584Z,28.33
2023-04-15T22:33:38.970Z,26.40
2023-04-15T22:36:06.361Z,29.53
2023-04-15T22:38:33.752Z,24.33
2023-04-15T22:41:00.750Z,22.00
2023-04-15T22:43:28.019Z,28.23
2023-04-15T22:45:55.213Z,38.10
2023-04-15T22:48:22.986Z,35.23
2023-04-15T22:50:50.171Z,35.67
2023-04-15T22:53:17.912Z,32.57
2023-04-15T22:55:48.303Z,33.80
2023-04-15T22:58:17.174Z,32.63
2023-04-15T23:00:44.647Z,30.58
2023-04-15T23:03:12.347Z,37.70
2023-04-15T23:05:41.389Z,36.33
2023-04-15T23:10:35.590Z,37.63
2023-04-15T23:13:02.698Z,42.50
2023-04-15T23:15:29.555Z,42.23
2023-04-15T23:17:56.867Z,37.37
2023-04-15T23:20:23.769Z,38.97
2023-04-15T23:22:50.921Z,33.27
2023-04-15T23:25:17.921Z,38.07
2023-04-15T23:27:45.417Z,34.23
2023-04-15T23:30:12.322Z,32.37
2023-04-15T23:32:39.519Z,29.33
2023-04-15T23:35:06.736Z,26.00
2023-04-15T23:37:33.916Z,28.40
2023-04-15T23:40:00.816Z,25.20
2023-04-15T23:42:28.011Z,27.83
2023-04-15T23:44:54.911Z,29.87
2023-04-15T23:47:22.283Z,32.57
2023-04-15T23:49:49.210Z,28.00
2023-04-15T23:52:16.356Z,31.10
2023-04-15T23:54:43.223Z,32.93
2023-04-15T23:57:10.431Z,38.80
2023-04-15T23:59:37.298Z,29.07
